Terminal Aerodrome Forecast
Issued by NWS Blacksburg, VA

Home | Current Version | Previous Version | Text Only | Print | Product List | Glossary On
Versions: 1 2 3 4 5 6 7 8 9 10 11 12 13 14 15 16 17 18 19 20 21 22 23 24 25 26 27 28
000
FTUS41 KRNK 062231 AAB
TAFROA
TAF AMD
KROA 062231Z 0623/0718 VRB04KT P6SM VCTS SCT050CB BKN080
      TEMPO 0623/0624 2SM TSRA BKN030CB
     FM070030 VRB02KT P6SM SCT100
     FM071500 08006KT P6SM BKN040=

USA.gov is the U.S. government's official web portal to all federal, state and local government web resources and services.